Time,TemperatureF,DewpointF,PressureIn,WindDirection,WindDirectionDegrees,WindSpeedMPH,WindSpeedGustMPH,Humidity,HourlyPrecipIn,Conditions,Clouds,dailyrainin,SoftwareType,DateUTC
2013-01-15 00:01:00,32.0,24.0,30.37,NE,46,0.0,0.0,71,0.00,,,0.00,,2013-01-15 08:01:00,
2013-01-15 00:11:00,32.0,24.0,30.37,NE,46,0.0,0.0,71,0.00,,,0.00,,2013-01-15 08:11:00,
2013-01-15 00:22:00,31.0,23.0,30.37,NE,45,0.0,0.0,71,0.00,,,0.00,,2013-01-15 08:22:00,
2013-01-15 00:32:00,31.0,23.0,30.37,NE,45,0.0,0.0,72,0.00,,,0.00,,2013-01-15 08:32:00,
2013-01-15 00:42:00,31.0,23.0,30.37,NE,45,0.0,0.0,72,0.00,,,0.00,,2013-01-15 08:42:00,
2013-01-15 00:52:00,31.0,23.0,30.38,NE,45,0.0,1.0,73,0.00,,,0.00,,2013-01-15 08:52:00,
2013-01-15 01:02:00,31.0,24.0,30.37,NE,46,0.0,0.0,74,0.00,,,0.00,,2013-01-15 09:02:00,
2013-01-15 01:11:00,31.0,24.0,30.37,NE,46,0.0,0.0,74,0.00,,,0.00,,2013-01-15 09:11:00,
2013-01-15 01:22:00,31.0,24.0,30.37,NE,46,0.0,1.0,75,0.00,,,0.00,,2013-01-15 09:22:00,
2013-01-15 01:32:00,31.0,24.0,30.39,NE,46,0.0,2.0,75,0.00,,,0.00,,2013-01-15 09:32:00,
2013-01-15 01:42:00,31.0,24.0,30.39,NE,46,0.0,2.0,75,0.00,,,0.00,,2013-01-15 09:42:00,
2013-01-15 01:52:00,30.0,23.0,30.39,NE,45,0.0,0.0,74,0.00,,,0.00,,2013-01-15 09:52:00,
2013-01-15 02:01:00,30.0,23.0,30.39,NE,46,0.0,1.0,74,0.00,,,0.00,,2013-01-15 10:01:00,
2013-01-15 02:11:00,30.0,23.0,30.39,NE,46,0.0,1.0,74,0.00,,,0.00,,2013-01-15 10:11:00,
2013-01-15 02:22:00,30.0,23.0,30.40,NE,45,0.0,1.0,75,0.00,,,0.00,,2013-01-15 10:22:00,
2013-01-15 02:32:00,30.0,23.0,30.40,NE,45,0.0,2.0,76,0.00,,,0.00,,2013-01-15 10:32:00,
2013-01-15 02:42:00,30.0,23.0,30.40,NE,45,0.0,2.0,76,0.00,,,0.00,,2013-01-15 10:42:00,
2013-01-15 02:52:00,30.0,23.0,30.40,NE,46,0.0,1.0,75,0.00,,,0.00,,2013-01-15 10:52:00,
2013-01-15 03:02:00,29.0,22.0,30.40,NE,45,0.0,0.0,76,0.00,,,0.00,,2013-01-15 11:02:00,
2013-01-15 03:11:00,29.0,22.0,30.40,NE,45,0.0,0.0,76,0.00,,,0.00,,2013-01-15 11:11:00,
2013-01-15 03:22:00,29.0,22.0,30.40,NE,46,0.0,0.0,76,0.00,,,0.00,,2013-01-15 11:22:00,
2013-01-15 03:32:00,29.0,23.0,30.41,NE,45,0.0,0.0,77,0.00,,,0.00,,2013-01-15 11:32:00,
2013-01-15 03:42:00,29.0,23.0,30.41,NE,45,0.0,0.0,77,0.00,,,0.00,,2013-01-15 11:42:00,
2013-01-15 03:52:00,29.0,23.0,30.41,NE,46,0.0,0.0,78,0.00,,,0.00,,2013-01-15 11:52:00,
2013-01-15 04:02:00,29.0,23.0,30.41,NE,45,0.0,1.0,79,0.00,,,0.00,,2013-01-15 12:02:00,
2013-01-15 04:11:00,29.0,23.0,30.41,NE,45,0.0,1.0,79,0.00,,,0.00,,2013-01-15 12:11:00,
2013-01-15 04:22:00,29.0,23.0,30.40,NE,45,0.0,0.0,79,0.00,,,0.00,,2013-01-15 12:22:00,
2013-01-15 04:32:00,29.0,23.0,30.40,NE,46,0.0,1.0,79,0.00,,,0.00,,2013-01-15 12:32:00,
2013-01-15 04:42:00,29.0,23.0,30.40,NE,46,0.0,1.0,79,0.00,,,0.00,,2013-01-15 12:42:00,
2013-01-15 04:53:00,28.0,22.0,30.40,NE,45,0.0,0.0,79,0.00,,,0.00,,2013-01-15 12:53:00,
2013-01-15 05:02:00,28.0,22.0,30.40,NE,46,0.0,0.0,79,0.00,,,0.00,,2013-01-15 13:02:00,
2013-01-15 05:12:00,28.0,22.0,30.40,NE,46,0.0,0.0,79,0.00,,,0.00,,2013-01-15 13:12:00,
2013-01-15 05:22:00,28.0,23.0,30.40,NE,46,0.0,1.0,80,0.00,,,0.00,,2013-01-15 13:22:00,
2013-01-15 05:32:00,28.0,22.0,30.39,NE,45,0.0,0.0,79,0.00,,,0.00,,2013-01-15 13:32:00,
2013-01-15 05:42:00,28.0,22.0,30.39,NE,45,0.0,0.0,79,0.00,,,0.00,,2013-01-15 13:42:00,
2013-01-15 05:53:00,28.0,23.0,30.40,NE,45,0.0,1.0,80,0.00,,,0.00,,2013-01-15 13:53:00,
2013-01-15 06:02:00,27.0,22.0,30.41,NE,46,0.0,0.0,80,0.00,,,0.00,,2013-01-15 14:02:00,
2013-01-15 06:12:00,27.0,22.0,30.41,NE,46,0.0,0.0,80,0.00,,,0.00,,2013-01-15 14:12:00,
2013-01-15 06:22:00,27.0,22.0,30.40,NE,45,0.0,0.0,81,0.00,,,0.00,,2013-01-15 14:22:00,
2013-01-15 06:32:00,27.0,22.0,30.41,NE,45,0.0,1.0,82,0.00,,,0.00,,2013-01-15 14:32:00,
2013-01-15 06:42:00,27.0,22.0,30.41,NE,45,0.0,1.0,82,0.00,,,0.00,,2013-01-15 14:42:00,
2013-01-15 06:53:00,28.0,23.0,30.40,NE,46,0.0,0.0,82,0.00,,,0.00,,2013-01-15 14:53:00,
2013-01-15 07:02:00,28.0,23.0,30.41,NE,46,0.0,1.0,81,0.00,,,0.00,,2013-01-15 15:02:00,
2013-01-15 07:12:00,28.0,23.0,30.41,NE,46,0.0,1.0,81,0.00,,,0.00,,2013-01-15 15:12:00,
2013-01-15 07:23:00,28.0,23.0,30.41,NE,46,0.0,1.0,81,0.00,,,0.00,,2013-01-15 15:23:00,
2013-01-15 07:32:00,28.0,23.0,30.42,NE,46,0.0,0.0,81,0.00,,,0.00,,2013-01-15 15:32:00,
2013-01-15 07:42:00,28.0,23.0,30.42,NE,46,0.0,0.0,81,0.00,,,0.00,,2013-01-15 15:42:00,
2013-01-15 07:53:00,28.0,23.0,30.42,NE,46,0.0,1.0,82,0.00,,,0.00,,2013-01-15 15:53:00,
2013-01-15 08:02:00,28.0,23.0,30.42,NE,45,0.0,0.0,81,0.00,,,0.00,,2013-01-15 16:02:00,
2013-01-15 08:11:00,28.0,23.0,30.42,NE,45,0.0,0.0,81,0.00,,,0.00,,2013-01-15 16:11:00,
2013-01-15 08:22:00,28.0,23.0,30.43,NE,46,0.0,1.0,81,0.00,,,0.00,,2013-01-15 16:22:00,
2013-01-15 08:32:00,29.0,24.0,30.44,NE,46,0.0,1.0,80,0.00,,,0.00,,2013-01-15 16:32:00,
2013-01-15 08:42:00,29.0,24.0,30.44,NE,46,0.0,1.0,80,0.00,,,0.00,,2013-01-15 16:42:00,
2013-01-15 08:53:00,30.0,24.0,30.44,NE,46,0.0,0.0,79,0.00,,,0.00,,2013-01-15 16:53:00,
2013-01-15 09:02:00,32.0,25.0,30.45,NE,45,0.0,1.0,76,0.00,,,0.00,,2013-01-15 17:02:00,
2013-01-15 09:12:00,32.0,25.0,30.45,NE,45,0.0,1.0,76,0.00,,,0.00,,2013-01-15 17:12:00,
2013-01-15 09:22:00,34.0,25.0,30.45,NE,45,0.0,0.0,69,0.00,,,0.00,,2013-01-15 17:22:00,
2013-01-15 09:32:00,36.0,25.0,30.45,NE,46,0.0,0.0,64,0.00,,,0.00,,2013-01-15 17:32:00,
2013-01-15 09:42:00,36.0,25.0,30.45,NE,46,0.0,0.0,64,0.00,,,0.00,,2013-01-15 17:42:00,
2013-01-15 09:53:00,37.0,26.0,30.45,NE,46,0.0,1.0,63,0.00,,,0.00,,2013-01-15 17:53:00,
2013-01-15 10:02:00,39.0,26.0,30.45,West,281,2.0,4.0,60,0.00,,,0.00,,2013-01-15 18:02:00,
2013-01-15 10:12:00,39.0,26.0,30.45,West,281,2.0,4.0,60,0.00,,,0.00,,2013-01-15 18:12:00,
2013-01-15 10:22:00,40.0,26.0,30.45,WSW,256,1.0,3.0,58,0.00,,,0.00,,2013-01-15 18:22:00,
2013-01-15 10:33:00,41.0,27.0,30.45,West,261,2.0,3.0,57,0.00,,,0.00,,2013-01-15 18:33:00,
2013-01-15 10:42:00,41.0,27.0,30.45,West,261,2.0,3.0,57,0.00,,,0.00,,2013-01-15 18:42:00,
2013-01-15 10:53:00,42.0,27.0,30.45,West,261,3.0,4.0,55,0.00,,,0.00,,2013-01-15 18:53:00,
2013-01-15 11:02:00,43.0,28.0,30.44,WSW,252,3.0,5.0,56,0.00,,,0.00,,2013-01-15 19:02:00,
2013-01-15 11:12:00,43.0,28.0,30.44,WSW,252,3.0,5.0,56,0.00,,,0.00,,2013-01-15 19:12:00,
2013-01-15 11:22:00,44.0,29.0,30.44,WNW,294,1.0,3.0,55,0.00,,,0.00,,2013-01-15 19:22:00,
2013-01-15 11:32:00,47.0,30.0,30.44,WNW,291,2.0,3.0,51,0.00,,,0.00,,2013-01-15 19:32:00,
2013-01-15 11:42:00,47.0,30.0,30.44,WNW,291,2.0,3.0,51,0.00,,,0.00,,2013-01-15 19:42:00,
2013-01-15 11:53:00,49.0,28.0,30.43,WNW,286,2.0,3.0,44,0.00,,,0.00,,2013-01-15 19:53:00,
2013-01-15 12:02:00,50.0,25.0,30.42,NNE,19,6.0,9.0,38,0.00,,,0.00,,2013-01-15 20:02:00,
2013-01-15 12:22:00,49.0,25.0,30.42,NE,49,5.0,8.0,38,0.00,,,0.00,,2013-01-15 20:22:00,
2013-01-15 12:33:00,50.0,25.0,30.41,NE,42,6.0,9.0,37,0.00,,,0.00,,2013-01-15 20:33:00,
2013-01-15 12:42:00,50.0,25.0,30.41,NE,42,6.0,9.0,37,0.00,,,0.00,,2013-01-15 20:42:00,
2013-01-15 12:53:00,49.0,26.0,30.41,NE,52,6.0,9.0,40,0.00,,,0.00,,2013-01-15 20:53:00,
2013-01-15 13:02:00,49.0,25.0,30.40,North,355,8.0,11.0,38,0.00,,,0.00,,2013-01-15 21:02:00,
2013-01-15 13:12:00,49.0,25.0,30.40,North,355,8.0,11.0,38,0.00,,,0.00,,2013-01-15 21:12:00,
2013-01-15 13:22:00,49.0,25.0,30.40,NNE,17,9.0,15.0,38,0.00,,,0.00,,2013-01-15 21:22:00,
2013-01-15 13:33:00,49.0,25.0,30.40,NNE,31,5.0,14.0,39,0.00,,,0.00,,2013-01-15 21:33:00,
2013-01-15 13:42:00,49.0,25.0,30.40,NNE,31,5.0,14.0,39,0.00,,,0.00,,2013-01-15 21:42:00,
2013-01-15 13:53:00,50.0,26.0,30.40,NE,40,5.0,11.0,39,0.00,,,0.00,,2013-01-15 21:53:00,
2013-01-15 14:02:00,50.0,27.0,30.39,NE,38,6.0,11.0,41,0.00,,,0.00,,2013-01-15 22:02:00,
2013-01-15 14:12:00,50.0,27.0,30.39,NE,38,6.0,11.0,41,0.00,,,0.00,,2013-01-15 22:12:00,
2013-01-15 14:22:00,50.0,28.0,30.39,NNE,26,6.0,10.0,42,0.00,,,0.00,,2013-01-15 22:22:00,
2013-01-15 14:32:00,50.0,25.0,30.38,NNE,28,5.0,9.0,37,0.00,,,0.00,,2013-01-15 22:32:00,
2013-01-15 14:42:00,50.0,25.0,30.38,NNE,28,5.0,9.0,37,0.00,,,0.00,,2013-01-15 22:42:00,
2013-01-15 14:52:00,50.0,26.0,30.39,NNE,32,6.0,9.0,39,0.00,,,0.00,,2013-01-15 22:52:00,
2013-01-15 15:02:00,50.0,26.0,30.39,NE,38,5.0,10.0,39,0.00,,,0.00,,2013-01-15 23:02:00,
2013-01-15 15:12:00,50.0,26.0,30.39,NE,38,5.0,10.0,39,0.00,,,0.00,,2013-01-15 23:12:00,
2013-01-15 15:22:00,49.0,27.0,30.40,NE,47,5.0,10.0,43,0.00,,,0.00,,2013-01-15 23:22:00,
2013-01-15 15:32:00,49.0,29.0,30.39,ENE,59,5.0,10.0,45,0.00,,,0.00,,2013-01-15 23:32:00,
2013-01-15 15:42:00,49.0,29.0,30.39,ENE,59,5.0,10.0,45,0.00,,,0.00,,2013-01-15 23:42:00,
2013-01-15 15:53:00,49.0,29.0,30.39,NNE,33,6.0,9.0,46,0.00,,,0.00,,2013-01-15 23:53:00,
2013-01-15 16:02:00,48.0,29.0,30.39,ENE,61,5.0,9.0,48,0.00,,,0.00,,2013-01-16 00:02:00,
2013-01-15 16:12:00,48.0,29.0,30.39,ENE,61,5.0,9.0,48,0.00,,,0.00,,2013-01-16 00:12:00,
2013-01-15 16:22:00,48.0,29.0,30.40,NNE,28,5.0,8.0,48,0.00,,,0.00,,2013-01-16 00:22:00,
2013-01-15 16:32:00,48.0,30.0,30.39,NNE,23,5.0,8.0,50,0.00,,,0.00,,2013-01-16 00:32:00,
2013-01-15 16:42:00,48.0,30.0,30.39,NNE,23,5.0,8.0,50,0.00,,,0.00,,2013-01-16 00:42:00,
2013-01-15 16:53:00,47.0,30.0,30.40,NE,44,6.0,10.0,51,0.00,,,0.00,,2013-01-16 00:53:00,
2013-01-15 17:02:00,47.0,30.0,30.40,NE,44,5.0,7.0,52,0.00,,,0.00,,2013-01-16 01:02:00,
2013-01-15 17:11:00,47.0,30.0,30.40,NE,44,5.0,7.0,52,0.00,,,0.00,,2013-01-16 01:11:00,
2013-01-15 17:22:00,46.0,30.0,30.39,NE,48,4.0,6.0,53,0.00,,,0.00,,2013-01-16 01:22:00,
2013-01-15 17:32:00,45.0,30.0,30.39,NNE,22,3.0,5.0,55,0.00,,,0.00,,2013-01-16 01:32:00,
2013-01-15 17:42:00,45.0,30.0,30.39,NNE,22,3.0,5.0,55,0.00,,,0.00,,2013-01-16 01:42:00,
2013-01-15 17:53:00,44.0,29.0,30.39,NNE,26,3.0,5.0,56,0.00,,,0.00,,2013-01-16 01:53:00,
2013-01-15 18:02:00,43.0,29.0,30.39,NNE,26,3.0,6.0,57,0.00,,,0.00,,2013-01-16 02:02:00,
2013-01-15 18:12:00,43.0,29.0,30.39,NNE,26,3.0,6.0,57,0.00,,,0.00,,2013-01-16 02:12:00,
2013-01-15 18:22:00,43.0,29.0,30.39,NE,41,3.0,6.0,58,0.00,,,0.00,,2013-01-16 02:22:00,
2013-01-15 18:32:00,43.0,29.0,30.39,NNE,22,3.0,6.0,58,0.00,,,0.00,,2013-01-16 02:32:00,
2013-01-15 18:42:00,43.0,29.0,30.39,NNE,22,3.0,6.0,58,0.00,,,0.00,,2013-01-16 02:42:00,
2013-01-15 18:53:00,43.0,29.0,30.39,NNE,21,4.0,8.0,58,0.00,,,0.00,,2013-01-16 02:53:00,
2013-01-15 19:02:00,42.0,29.0,30.39,NNE,32,4.0,6.0,60,0.00,,,0.00,,2013-01-16 03:02:00,
2013-01-15 19:11:00,42.0,29.0,30.39,NNE,32,4.0,6.0,60,0.00,,,0.00,,2013-01-16 03:11:00,
2013-01-15 19:22:00,42.0,29.0,30.39,NE,44,4.0,6.0,59,0.00,,,0.00,,2013-01-16 03:22:00,
2013-01-15 19:32:00,42.0,29.0,30.39,NE,40,3.0,7.0,59,0.00,,,0.00,,2013-01-16 03:32:00,
2013-01-15 19:42:00,42.0,29.0,30.39,NE,40,3.0,7.0,59,0.00,,,0.00,,2013-01-16 03:42:00,
2013-01-15 19:53:00,42.0,29.0,30.39,NE,44,0.0,2.0,59,0.00,,,0.00,,2013-01-16 03:53:00,
2013-01-15 20:02:00,40.0,27.0,30.40,NE,44,0.0,1.0,60,0.00,,,0.00,,2013-01-16 04:02:00,
2013-01-15 20:11:00,40.0,27.0,30.40,NE,44,0.0,1.0,60,0.00,,,0.00,,2013-01-16 04:11:00,
2013-01-15 20:22:00,40.0,28.0,30.40,NE,44,0.0,1.0,62,0.00,,,0.00,,2013-01-16 04:22:00,
2013-01-15 20:32:00,39.0,27.0,30.40,NE,56,1.0,3.0,63,0.00,,,0.00,,2013-01-16 04:32:00,
2013-01-15 20:42:00,39.0,27.0,30.40,NE,56,1.0,3.0,63,0.00,,,0.00,,2013-01-16 04:42:00,
2013-01-15 20:52:00,39.0,28.0,30.40,NE,56,0.0,2.0,64,0.00,,,0.00,,2013-01-16 04:52:00,
2013-01-15 21:03:00,39.0,28.0,30.39,NE,56,0.0,1.0,64,0.00,,,0.00,,2013-01-16 05:03:00,
2013-01-15 21:12:00,39.0,28.0,30.39,NE,56,0.0,1.0,64,0.00,,,0.00,,2013-01-16 05:12:00,
2013-01-15 21:22:00,38.0,27.0,30.39,NE,56,0.0,0.0,65,0.00,,,0.00,,2013-01-16 05:22:00,
2013-01-15 21:32:00,37.0,27.0,30.39,NE,56,0.0,0.0,67,0.00,,,0.00,,2013-01-16 05:32:00,
2013-01-15 21:42:00,37.0,27.0,30.39,NE,56,0.0,0.0,67,0.00,,,0.00,,2013-01-16 05:42:00,
2013-01-15 21:53:00,36.0,27.0,30.39,NE,56,0.0,0.0,69,0.00,,,0.00,,2013-01-16 05:53:00,
2013-01-15 22:02:00,36.0,28.0,30.39,NE,56,0.0,1.0,72,0.00,,,0.00,,2013-01-16 06:02:00,
2013-01-15 22:11:00,36.0,28.0,30.39,NE,56,0.0,1.0,72,0.00,,,0.00,,2013-01-16 06:11:00,
2013-01-15 22:22:00,35.0,27.0,30.39,NE,56,0.0,1.0,73,0.00,,,0.00,,2013-01-16 06:22:00,
2013-01-15 22:32:00,35.0,28.0,30.39,NE,56,0.0,0.0,74,0.00,,,0.00,,2013-01-16 06:32:00,
2013-01-15 22:42:00,35.0,28.0,30.39,NE,56,0.0,0.0,74,0.00,,,0.00,,2013-01-16 06:42:00,
2013-01-15 22:52:00,34.0,27.0,30.39,NE,56,0.0,1.0,75,0.00,,,0.00,,2013-01-16 06:52:00,
2013-01-15 23:02:00,34.0,27.0,30.39,NE,56,0.0,1.0,76,0.00,,,0.00,,2013-01-16 07:02:00,
2013-01-15 23:11:00,34.0,27.0,30.39,NE,56,0.0,1.0,76,0.00,,,0.00,,2013-01-16 07:11:00,
2013-01-15 23:22:00,35.0,28.0,30.40,NE,56,0.0,1.0,76,0.00,,,0.00,,2013-01-16 07:22:00,
2013-01-15 23:32:00,35.0,28.0,30.40,NE,56,0.0,1.0,76,0.00,,,0.00,,2013-01-16 07:32:00,
2013-01-15 23:42:00,35.0,28.0,30.40,NE,56,0.0,1.0,76,0.00,,,0.00,,2013-01-16 07:42:00,
2013-01-15 23:52:00,35.0,28.0,30.40,NE,56,0.0,1.0,76,0.00,,,0.00,,2013-01-16 07:52:00,